Time,TemperatureF,DewpointF,PressureIn,WindDirection,WindDirectionDegrees,WindSpeedMPH,WindSpeedGustMPH,Humidity,HourlyPrecipIn,Conditions,Clouds,dailyrainin,SoftwareType,DateUTC
2013-01-31 00:03:00,57.7,56.3,29.34,SSW,200,10.0,13.0,95,0.00,,---,0.00,VWS V14.00,2013-01-31 05:03:00,
2013-01-31 00:08:00,58.1,56.4,29.34,SW,227,3.0,14.0,94,0.00,,---,0.00,VWS V14.00,2013-01-31 05:08:00,
2013-01-31 00:13:00,58.2,56.5,29.34,South,191,3.0,14.0,94,0.00,,---,0.00,VWS V14.00,2013-01-31 05:13:00,
2013-01-31 00:18:00,58.2,56.2,29.32,SSW,193,3.0,15.0,93,0.00,,---,0.00,VWS V14.00,2013-01-31 05:18:00,
2013-01-31 00:23:00,58.2,56.2,29.32,SSW,207,3.0,15.0,93,0.00,,---,0.01,VWS V14.00,2013-01-31 05:23:00,
2013-01-31 00:28:00,58.3,56.3,29.31,South,190,4.0,10.0,93,0.00,,---,0.01,VWS V14.00,2013-01-31 05:28:00,
2013-01-31 00:33:00,58.4,56.4,29.30,SW,219,9.0,10.0,93,0.00,,---,0.01,VWS V14.00,2013-01-31 05:33:00,
2013-01-31 00:38:00,58.4,56.4,29.30,South,180,9.0,18.0,93,0.00,,---,0.01,VWS V14.00,2013-01-31 05:38:00,
2013-01-31 00:44:00,58.5,56.5,29.30,South,184,3.0,18.0,93,0.00,,---,0.02,VWS V14.00,2013-01-31 05:44:00,
2013-01-31 00:49:00,58.6,56.6,29.29,WSW,249,4.0,18.0,93,0.19,,---,0.04,VWS V14.00,2013-01-31 05:49:00,
2013-01-31 00:54:00,58.7,56.7,29.27,SE,134,5.0,18.0,93,0.12,,---,0.05,VWS V14.00,2013-01-31 05:54:00,
2013-01-31 00:59:00,58.8,56.8,29.27,SW,218,6.0,12.0,93,0.08,,---,0.06,VWS V14.00,2013-01-31 05:59:00,
2013-01-31 01:04:00,59.1,57.4,29.27,SSW,198,7.0,17.0,94,0.31,,---,0.08,VWS V14.00,2013-01-31 06:04:00,
2013-01-31 01:09:00,59.4,57.7,29.25,SSE,151,16.0,17.0,94,0.15,,---,0.10,VWS V14.00,2013-01-31 06:09:00,
2013-01-31 01:14:00,59.8,58.1,29.24,SW,231,18.0,19.0,94,0.11,,---,0.10,VWS V14.00,2013-01-31 06:14:00,
2013-01-31 01:19:00,60.0,58.3,29.25,SSW,206,15.0,21.0,94,0.06,,---,0.11,VWS V14.00,2013-01-31 06:19:00,
2013-01-31 01:24:00,60.2,58.5,29.24,SSW,204,14.0,21.0,94,0.06,,---,0.11,VWS V14.00,2013-01-31 06:24:00,
2013-01-31 01:29:00,60.4,58.4,29.24,South,178,7.0,22.0,93,0.06,,---,0.11,VWS V14.00,2013-01-31 06:29:00,
2013-01-31 01:34:00,60.4,58.4,29.23,South,181,5.0,22.0,93,0.04,,---,0.11,VWS V14.00,2013-01-31 06:34:00,
2013-01-31 01:39:00,60.5,58.5,29.22,SSE,167,13.0,23.0,93,0.00,,---,0.11,VWS V14.00,2013-01-31 06:39:00,
2013-01-31 01:44:00,60.5,58.2,29.21,South,180,6.0,23.0,92,0.00,,---,0.12,VWS V14.00,2013-01-31 06:44:00,
2013-01-31 01:49:00,60.5,58.2,29.20,SW,225,14.0,23.0,92,0.09,,---,0.13,VWS V14.00,2013-01-31 06:49:00,
2013-01-31 01:54:00,60.5,58.2,29.18,SSW,197,5.0,23.0,92,0.09,,---,0.13,VWS V14.00,2013-01-31 06:54:00,
2013-01-31 01:59:00,60.3,58.0,29.18,South,186,8.0,19.0,92,0.06,,---,0.13,VWS V14.00,2013-01-31 06:59:00,
2013-01-31 02:04:00,60.2,57.9,29.17,South,188,3.0,21.0,92,0.04,,---,0.13,VWS V14.00,2013-01-31 07:04:00,
2013-01-31 02:09:00,60.3,58.0,29.16,SSW,201,13.0,22.0,92,0.04,,---,0.14,VWS V14.00,2013-01-31 07:09:00,
2013-01-31 02:14:00,60.3,57.7,29.16,SSW,205,14.0,23.0,91,0.04,,---,0.14,VWS V14.00,2013-01-31 07:14:00,
2013-01-31 02:19:00,60.4,57.8,29.15,SW,228,16.0,23.0,91,0.05,,---,0.15,VWS V14.00,2013-01-31 07:19:00,
2013-01-31 02:24:00,60.4,57.8,29.15,SW,220,6.0,25.0,91,0.05,,---,0.15,VWS V14.00,2013-01-31 07:24:00,
2013-01-31 02:29:00,60.4,57.8,29.14,SSW,209,11.0,32.0,91,0.07,,---,0.16,VWS V14.00,2013-01-31 07:29:00,
2013-01-31 02:34:00,60.5,57.9,29.13,South,180,13.0,32.0,91,0.09,,---,0.17,VWS V14.00,2013-01-31 07:34:00,
2013-01-31 02:39:00,60.7,58.1,29.12,South,179,9.0,33.0,91,0.09,,---,0.17,VWS V14.00,2013-01-31 07:39:00,
2013-01-31 02:44:00,60.7,57.8,29.12,SSW,204,18.0,33.0,90,0.06,,---,0.18,VWS V14.00,2013-01-31 07:44:00,
2013-01-31 02:49:00,60.6,58.0,29.12,West,266,17.0,34.0,91,0.06,,---,0.18,VWS V14.00,2013-01-31 07:49:00,
2013-01-31 02:54:00,60.7,58.1,29.11,SSW,213,24.0,34.0,91,0.08,,---,0.19,VWS V14.00,2013-01-31 07:54:00,
2013-01-31 02:59:00,60.8,57.8,29.11,SSW,200,14.0,19.0,90,0.08,,---,0.20,VWS V14.00,2013-01-31 07:59:00,
2013-01-31 03:04:00,60.8,57.8,29.09,SSW,195,17.0,28.0,90,0.13,,---,0.21,VWS V14.00,2013-01-31 08:04:00,
2013-01-31 03:09:00,60.8,57.8,29.08,SSW,212,17.0,28.0,90,0.11,,---,0.22,VWS V14.00,2013-01-31 08:09:00,
2013-01-31 03:14:00,60.7,58.1,29.08,SW,215,11.0,28.0,91,0.15,,---,0.23,VWS V14.00,2013-01-31 08:14:00,
2013-01-31 03:19:00,60.5,57.9,29.07,SSW,210,18.0,28.0,91,0.25,,---,0.25,VWS V14.00,2013-01-31 08:19:00,
2013-01-31 03:24:00,60.5,57.9,29.06,SSW,205,25.0,28.0,91,0.15,,---,0.26,VWS V14.00,2013-01-31 08:24:00,
2013-01-31 03:29:00,60.4,57.8,29.06,SW,227,7.0,23.0,91,0.16,,---,0.28,VWS V14.00,2013-01-31 08:29:00,
2013-01-31 03:34:00,60.3,57.7,29.06,SSW,194,26.0,29.0,91,0.35,,---,0.31,VWS V14.00,2013-01-31 08:34:00,
2013-01-31 03:39:00,60.2,57.9,29.05,SSW,209,27.0,30.0,92,2.04,,---,0.37,VWS V14.00,2013-01-31 08:39:00,
2013-01-31 03:44:00,60.1,57.8,29.04,SSE,159,9.0,30.0,92,0.26,,---,0.39,VWS V14.00,2013-01-31 08:44:00,
2013-01-31 03:49:00,60.0,57.7,29.05,South,187,9.0,30.0,92,0.29,,---,0.41,VWS V14.00,2013-01-31 08:49:00,
2013-01-31 03:54:00,59.8,57.5,29.04,South,190,8.0,30.0,92,0.28,,---,0.43,VWS V14.00,2013-01-31 08:54:00,
2013-01-31 03:59:00,59.7,57.4,29.05,NW,319,2.0,20.0,92,0.36,,---,0.45,VWS V14.00,2013-01-31 08:59:00,
2013-01-31 04:04:00,59.7,57.7,29.13,NW,319,5.0,20.0,93,2.88,,---,0.59,VWS V14.00,2013-01-31 09:04:00,
2013-01-31 04:09:00,59.2,56.9,29.12,WNW,298,1.0,20.0,92,0.35,,---,0.66,VWS V14.00,2013-01-31 09:09:00,
2013-01-31 04:14:00,59.0,57.0,29.11,SSE,156,2.0,20.0,93,0.12,,---,0.66,VWS V14.00,2013-01-31 09:14:00,
2013-01-31 04:19:00,59.1,57.1,29.10,WSW,238,5.0,20.0,93,0.10,,---,0.67,VWS V14.00,2013-01-31 09:19:00,
2013-01-31 04:25:00,59.1,57.1,29.11,WSW,252,1.0,20.0,93,0.07,,---,0.67,VWS V14.00,2013-01-31 09:25:00,
2013-01-31 04:30:00,59.1,57.1,29.11,NW,325,6.0,11.0,93,0.05,,---,0.68,VWS V14.00,2013-01-31 09:30:00,
2013-01-31 04:35:00,59.2,56.9,29.10,NW,313,2.0,13.0,92,0.05,,---,0.68,VWS V14.00,2013-01-31 09:35:00,
2013-01-31 04:40:00,59.0,56.7,29.10,NW,313,0.0,14.0,92,0.07,,---,0.69,VWS V14.00,2013-01-31 09:40:00,
2013-01-31 04:45:00,58.9,56.3,29.09,West,280,2.0,14.0,91,0.07,,---,0.69,VWS V14.00,2013-01-31 09:45:00,
2013-01-31 04:50:00,58.7,56.4,29.09,SSW,210,3.0,14.0,92,0.05,,---,0.70,VWS V14.00,2013-01-31 09:50:00,
2013-01-31 04:55:00,58.5,56.2,29.10,SW,214,9.0,14.0,92,0.05,,---,0.70,VWS V14.00,2013-01-31 09:55:00,
2013-01-31 05:00:00,58.3,55.7,29.10,SW,217,1.0,8.0,91,0.05,,---,0.70,VWS V14.00,2013-01-31 10:00:00,
2013-01-31 05:05:00,58.1,55.5,29.08,SW,221,1.0,11.0,91,0.00,,---,0.71,VWS V14.00,2013-01-31 10:05:00,
2013-01-31 05:10:00,57.9,55.3,29.07,SSW,204,5.0,15.0,91,0.00,,---,0.71,VWS V14.00,2013-01-31 10:10:00,
2013-01-31 05:15:00,57.8,55.2,29.08,SW,215,6.0,15.0,91,0.00,,---,0.71,VWS V14.00,2013-01-31 10:15:00,
2013-01-31 05:20:00,57.5,54.9,29.07,SW,221,7.0,15.0,91,0.04,,---,0.72,VWS V14.00,2013-01-31 10:20:00,
2013-01-31 05:25:00,57.3,54.4,29.06,South,169,4.0,15.0,90,0.04,,---,0.72,VWS V14.00,2013-01-31 10:25:00,
2013-01-31 05:30:00,57.1,54.5,29.06,SSW,207,7.0,10.0,91,0.04,,---,0.72,VWS V14.00,2013-01-31 10:30:00,
2013-01-31 05:35:00,56.9,54.3,29.05,SSW,210,0.0,10.0,91,0.04,,---,0.72,VWS V14.00,2013-01-31 10:35:00,
2013-01-31 05:40:00,56.8,54.2,29.03,SSE,153,0.0,10.0,91,0.00,,---,0.72,VWS V14.00,2013-01-31 10:40:00,
2013-01-31 05:45:00,56.7,54.4,29.04,SSW,200,3.0,10.0,92,0.00,,---,0.72,VWS V14.00,2013-01-31 10:45:00,
2013-01-31 05:50:00,56.7,54.4,29.04,SSW,208,0.0,10.0,92,0.00,,---,0.72,VWS V14.00,2013-01-31 10:50:00,
2013-01-31 05:55:00,56.6,54.3,29.05,SSW,207,0.0,10.0,92,0.00,,---,0.72,VWS V14.00,2013-01-31 10:55:00,
2013-01-31 06:00:00,56.5,54.2,29.04,SSW,211,0.0,3.0,92,0.00,,---,0.72,VWS V14.00,2013-01-31 11:00:00,
2013-01-31 06:05:00,56.5,54.2,29.04,SW,234,0.0,6.0,92,0.00,,---,0.72,VWS V14.00,2013-01-31 11:05:00,
2013-01-31 06:10:00,56.6,54.3,29.03,SSW,198,3.0,7.0,92,0.00,,---,0.72,VWS V14.00,2013-01-31 11:10:00,
2013-01-31 06:15:00,56.6,54.3,29.05,SW,214,0.0,8.0,92,0.00,,---,0.72,VWS V14.00,2013-01-31 11:15:00,
2013-01-31 06:20:00,56.5,54.2,29.05,South,182,3.0,9.0,92,0.00,,---,0.72,VWS V14.00,2013-01-31 11:20:00,
2013-01-31 06:25:00,56.4,53.8,29.06,WNW,291,5.0,9.0,91,0.00,,---,0.73,VWS V14.00,2013-01-31 11:25:00,
2013-01-31 06:30:00,56.2,53.9,29.06,NW,314,0.0,4.0,92,0.22,,---,0.77,VWS V14.00,2013-01-31 11:30:00,
2013-01-31 06:35:00,56.1,53.8,29.07,WNW,300,2.0,7.0,92,0.08,,---,0.77,VWS V14.00,2013-01-31 11:35:00,
2013-01-31 06:40:00,55.9,53.0,29.10,WNW,302,24.0,24.0,90,0.59,,---,0.79,VWS V14.00,2013-01-31 11:40:00,
2013-01-31 06:45:00,53.2,47.5,29.10,NNW,332,16.0,24.0,81,0.11,,---,0.79,VWS V14.00,2013-01-31 11:45:00,
2013-01-31 06:50:00,52.1,45.5,29.12,NW,326,21.0,24.0,78,0.06,,---,0.79,VWS V14.00,2013-01-31 11:50:00,
2013-01-31 06:55:00,51.6,42.5,29.12,NW,305,16.0,24.0,71,0.04,,---,0.79,VWS V14.00,2013-01-31 11:55:00,
2013-01-31 07:00:00,51.3,40.7,29.14,NW,312,12.0,22.0,67,0.00,,---,0.79,VWS V14.00,2013-01-31 12:00:00,
2013-01-31 07:05:00,51.0,40.1,29.13,NNW,327,6.0,25.0,66,0.00,,---,0.79,VWS V14.00,2013-01-31 12:05:00,
2013-01-31 07:10:00,50.6,39.7,29.14,NW,321,10.0,25.0,66,0.00,,---,0.79,VWS V14.00,2013-01-31 12:10:00,
2013-01-31 07:15:00,50.4,39.1,29.15,NW,307,15.0,25.0,65,0.00,,---,0.79,VWS V14.00,2013-01-31 12:15:00,
2013-01-31 07:20:00,50.2,38.9,29.15,NNW,330,18.0,25.0,65,0.00,,---,0.79,VWS V14.00,2013-01-31 12:20:00,
2013-01-31 07:25:00,50.0,39.5,29.16,NNW,335,20.0,25.0,67,0.00,,---,0.79,VWS V14.00,2013-01-31 12:25:00,
2013-01-31 07:30:00,49.7,37.2,29.16,NW,323,11.0,22.0,62,0.00,,---,0.79,VWS V14.00,2013-01-31 12:30:00,
2013-01-31 07:35:00,49.6,37.1,29.16,NNW,329,5.0,22.0,62,0.00,,---,0.79,VWS V14.00,2013-01-31 12:35:00,
2013-01-31 07:40:00,49.2,37.2,29.17,NW,320,11.0,22.0,63,0.00,,---,0.79,VWS V14.00,2013-01-31 12:40:00,
2013-01-31 07:45:00,48.9,35.6,29.17,NW,321,7.0,22.0,60,0.00,,---,0.79,VWS V14.00,2013-01-31 12:45:00,
2013-01-31 07:50:00,48.5,35.7,29.18,WNW,290,14.0,28.0,61,0.00,,---,0.79,VWS V14.00,2013-01-31 12:50:00,
2013-01-31 07:55:00,48.2,35.4,29.17,NW,326,6.0,28.0,61,0.00,,---,0.79,VWS V14.00,2013-01-31 12:55:00,
2013-01-31 08:00:00,48.1,34.5,29.18,NW,326,12.0,22.0,59,0.00,,---,0.79,VWS V14.00,2013-01-31 13:00:00,
2013-01-31 08:05:00,47.9,34.3,29.18,NW,318,8.0,26.0,59,0.00,,---,0.79,VWS V14.00,2013-01-31 13:05:00,
2013-01-31 08:10:00,47.8,34.2,29.19,NW,306,11.0,26.0,59,0.00,,---,0.79,VWS V14.00,2013-01-31 13:10:00,
2013-01-31 08:15:00,47.5,34.3,29.21,NW,325,6.0,26.0,60,0.00,,---,0.79,VWS V14.00,2013-01-31 13:15:00,
2013-01-31 08:20:00,47.3,33.7,29.22,NNW,339,16.0,26.0,59,0.00,,---,0.79,VWS V14.00,2013-01-31 13:20:00,
2013-01-31 08:25:00,47.2,33.6,29.23,NNW,342,25.0,26.0,59,0.00,,---,0.79,VWS V14.00,2013-01-31 13:25:00,
2013-01-31 08:30:00,46.9,33.3,29.25,NW,320,18.0,24.0,59,0.00,,---,0.79,VWS V14.00,2013-01-31 13:30:00,
2013-01-31 08:35:00,46.7,33.2,29.25,NW,323,12.0,24.0,59,0.00,,---,0.79,VWS V14.00,2013-01-31 13:35:00,
2013-01-31 08:40:00,46.4,32.0,29.26,NNW,328,21.0,24.0,57,0.00,,---,0.79,VWS V14.00,2013-01-31 13:40:00,
2013-01-31 08:45:00,46.2,31.8,29.27,NNW,328,11.0,27.0,57,0.00,,---,0.79,VWS V14.00,2013-01-31 13:45:00,
2013-01-31 08:50:00,46.1,32.2,29.27,NW,321,18.0,27.0,58,0.00,,---,0.79,VWS V14.00,2013-01-31 13:50:00,
2013-01-31 08:55:00,46.1,31.3,29.27,NW,321,12.0,27.0,56,0.00,,---,0.79,VWS V14.00,2013-01-31 13:55:00,
2013-01-31 09:00:00,46.0,31.6,29.28,NNW,335,21.0,26.0,57,0.00,,---,0.79,VWS V14.00,2013-01-31 14:00:00,
2013-01-31 09:05:00,45.7,30.9,29.29,NNW,331,14.0,30.0,56,0.00,,---,0.79,VWS V14.00,2013-01-31 14:05:00,
2013-01-31 09:10:00,45.7,32.2,29.29,NW,314,13.0,30.0,59,0.00,,---,0.79,VWS V14.00,2013-01-31 14:10:00,
2013-01-31 09:16:00,45.7,30.5,29.31,NNW,346,20.0,30.0,55,0.00,,---,0.79,VWS V14.00,2013-01-31 14:16:00,
2013-01-31 09:21:00,45.6,31.3,29.31,NNW,333,23.0,30.0,57,0.00,,---,0.79,VWS V14.00,2013-01-31 14:21:00,
2013-01-31 09:26:00,45.6,29.9,29.32,NW,321,26.0,30.0,54,0.00,,---,0.79,VWS V14.00,2013-01-31 14:26:00,
2013-01-31 09:31:00,45.3,28.2,29.33,NW,312,9.0,26.0,51,0.00,,---,0.79,VWS V14.00,2013-01-31 14:31:00,
2013-01-31 09:36:00,45.0,28.5,29.33,NNW,345,27.0,29.0,52,0.00,,---,0.79,VWS V14.00,2013-01-31 14:36:00,
2013-01-31 09:41:00,44.8,27.3,29.33,NW,323,22.0,29.0,50,0.00,,---,0.79,VWS V14.00,2013-01-31 14:41:00,
2013-01-31 09:46:00,44.8,27.8,29.33,NNW,333,32.0,32.0,51,0.00,,---,0.79,VWS V14.00,2013-01-31 14:46:00,
2013-01-31 09:51:00,44.8,27.8,29.34,NNW,337,15.0,32.0,51,0.00,,---,0.79,VWS V14.00,2013-01-31 14:51:00,
2013-01-31 09:56:00,44.9,28.4,29.35,NNW,333,9.0,32.0,52,0.00,,---,0.79,VWS V14.00,2013-01-31 14:56:00,
2013-01-31 10:01:00,44.7,27.2,29.35,NNW,327,11.0,37.0,50,0.00,,---,0.79,VWS V14.00,2013-01-31 15:01:00,
2013-01-31 10:06:00,44.7,27.2,29.35,NW,319,11.0,37.0,50,0.00,,---,0.79,VWS V14.00,2013-01-31 15:06:00,
2013-01-31 10:11:00,44.8,27.3,29.36,NW,311,6.0,37.0,50,0.00,,---,0.79,VWS V14.00,2013-01-31 15:11:00,
2013-01-31 10:16:00,44.8,26.8,29.36,NNW,336,15.0,37.0,49,0.00,,---,0.79,VWS V14.00,2013-01-31 15:16:00,
2013-01-31 10:21:00,44.6,27.1,29.36,NNW,329,13.0,37.0,50,0.00,,---,0.79,VWS V14.00,2013-01-31 15:21:00,
2013-01-31 10:26:00,44.3,25.4,29.37,NNW,327,7.0,10.0,47,0.00,,---,0.79,VWS V14.00,2013-01-31 15:26:00,
2013-01-31 10:31:00,44.4,24.9,29.37,NW,325,13.0,25.0,46,0.00,,---,0.79,VWS V14.00,2013-01-31 15:31:00,
2013-01-31 10:36:00,44.6,25.1,29.37,NNW,336,15.0,30.0,46,0.00,,---,0.79,VWS V14.00,2013-01-31 15:36:00,
2013-01-31 10:41:00,44.8,27.3,29.38,NNW,334,6.0,30.0,50,0.00,,---,0.79,VWS V14.00,2013-01-31 15:41:00,
2013-01-31 10:46:00,45.0,27.0,29.37,NW,323,13.0,30.0,49,0.00,,---,0.79,VWS V14.00,2013-01-31 15:46:00,
2013-01-31 10:51:00,44.7,26.7,29.37,NW,323,14.0,30.0,49,0.00,,---,0.79,VWS V14.00,2013-01-31 15:51:00,
2013-01-31 10:56:00,44.6,27.1,29.38,North,350,12.0,12.0,50,0.00,,---,0.79,VWS V14.00,2013-01-31 15:56:00,
2013-01-31 11:01:00,44.7,27.2,29.38,NW,323,11.0,23.0,50,0.00,,---,0.79,VWS V14.00,2013-01-31 16:01:00,
2013-01-31 11:06:00,44.8,27.3,29.38,NNW,338,15.0,26.0,50,0.00,,---,0.79,VWS V14.00,2013-01-31 16:06:00,
2013-01-31 11:11:00,44.8,26.3,29.38,NNW,333,8.0,26.0,48,0.00,,---,0.79,VWS V14.00,2013-01-31 16:11:00,
2013-01-31 11:16:00,45.1,26.6,29.38,NNW,341,17.0,26.0,48,0.00,,---,0.79,VWS V14.00,2013-01-31 16:16:00,
2013-01-31 11:21:00,44.9,26.4,29.39,NW,323,15.0,26.0,48,0.00,,---,0.79,VWS V14.00,2013-01-31 16:21:00,
2013-01-31 11:26:00,44.6,27.1,29.39,NW,324,8.0,17.0,50,0.00,,---,0.79,VWS V14.00,2013-01-31 16:26:00,
2013-01-31 11:31:00,44.8,28.3,29.39,NNW,327,10.0,21.0,52,0.00,,---,0.79,VWS V14.00,2013-01-31 16:31:00,
2013-01-31 11:36:00,45.0,25.5,29.39,NW,320,19.0,21.0,46,0.00,,---,0.79,VWS V14.00,2013-01-31 16:36:00,
2013-01-31 11:41:00,44.8,25.8,29.40,NNW,334,13.0,21.0,47,0.00,,---,0.79,VWS V14.00,2013-01-31 16:41:00,
2013-01-31 11:46:00,44.4,24.4,29.40,NW,315,10.0,31.0,45,0.00,,---,0.79,VWS V14.00,2013-01-31 16:46:00,
2013-01-31 11:51:00,44.5,24.5,29.40,NW,307,14.0,31.0,45,0.00,,---,0.79,VWS V14.00,2013-01-31 16:51:00,
2013-01-31 11:56:00,44.7,25.2,29.40,NW,319,7.0,10.0,46,0.00,,---,0.79,VWS V14.00,2013-01-31 16:56:00,
2013-01-31 12:01:00,45.0,25.5,29.41,WNW,302,8.0,18.0,46,0.00,,---,0.79,VWS V14.00,2013-01-31 17:01:00,
2013-01-31 12:06:00,44.9,24.3,29.41,NNW,329,22.0,22.0,44,0.00,,---,0.79,VWS V14.00,2013-01-31 17:06:00,
2013-01-31 12:12:00,44.4,22.2,29.41,NNW,343,13.0,24.0,41,0.00,,---,0.79,VWS V14.00,2013-01-31 17:12:00,
2013-01-31 12:17:00,43.9,24.0,29.40,WNW,300,9.0,24.0,45,0.00,,---,0.79,VWS V14.00,2013-01-31 17:17:00,
2013-01-31 12:22:00,44.0,22.4,29.40,NNW,329,22.0,24.0,42,0.00,,---,0.79,VWS V14.00,2013-01-31 17:22:00,
2013-01-31 12:27:00,44.0,21.2,29.40,NW,323,15.0,27.0,40,0.00,,---,0.79,VWS V14.00,2013-01-31 17:27:00,
2013-01-31 12:32:00,44.1,21.9,29.40,NW,326,12.0,27.0,41,0.00,,---,0.79,VWS V14.00,2013-01-31 17:32:00,
2013-01-31 12:37:00,44.2,22.0,29.40,NNW,333,18.0,31.0,41,0.00,,---,0.79,VWS V14.00,2013-01-31 17:37:00,
2013-01-31 12:42:00,44.2,22.0,29.41,NNW,329,12.0,31.0,41,0.00,,---,0.79,VWS V14.00,2013-01-31 17:42:00,
2013-01-31 12:47:00,44.3,22.1,29.41,WNW,302,13.0,31.0,41,0.00,,---,0.79,VWS V14.00,2013-01-31 17:47:00,
2013-01-31 12:52:00,44.5,22.3,29.42,NW,325,12.0,31.0,41,0.00,,---,0.79,VWS V14.00,2013-01-31 17:52:00,
2013-01-31 12:57:00,44.6,22.9,29.41,NNW,346,24.0,24.0,42,0.00,,---,0.79,VWS V14.00,2013-01-31 17:57:00,
2013-01-31 13:02:00,44.6,23.5,29.41,NW,308,8.0,24.0,43,0.00,,---,0.79,VWS V14.00,2013-01-31 18:02:00,
2013-01-31 13:07:00,44.9,22.6,29.41,WNW,291,0.0,24.0,41,0.00,,---,0.79,VWS V14.00,2013-01-31 18:07:00,
2013-01-31 13:12:00,45.1,22.2,29.41,NNW,331,21.0,24.0,40,0.00,,---,0.79,VWS V14.00,2013-01-31 18:12:00,
2013-01-31 13:17:00,44.8,23.1,29.41,NNW,328,20.0,27.0,42,0.00,,---,0.79,VWS V14.00,2013-01-31 18:17:00,
2013-01-31 13:22:00,44.5,21.7,29.42,WNW,298,6.0,30.0,40,0.00,,---,0.79,VWS V14.00,2013-01-31 18:22:00,
2013-01-31 13:27:00,44.5,22.3,29.42,WNW,287,6.0,17.0,41,0.00,,---,0.79,VWS V14.00,2013-01-31 18:27:00,
2013-01-31 13:32:00,44.2,22.0,29.43,NW,306,7.0,24.0,41,0.00,,---,0.79,VWS V14.00,2013-01-31 18:32:00,
2013-01-31 13:37:00,43.9,21.7,29.44,NW,326,17.0,24.0,41,0.00,,---,0.79,VWS V14.00,2013-01-31 18:37:00,
2013-01-31 13:42:00,43.5,22.0,29.44,NNW,338,22.0,24.0,42,0.00,,---,0.79,VWS V14.00,2013-01-31 18:42:00,
2013-01-31 13:47:00,43.3,21.8,29.44,NNW,329,14.0,29.0,42,0.00,,---,0.79,VWS V14.00,2013-01-31 18:47:00,
2013-01-31 13:52:00,43.3,23.4,29.45,NW,304,4.0,29.0,45,0.00,,---,0.79,VWS V14.00,2013-01-31 18:52:00,
2013-01-31 13:57:00,43.3,22.9,29.44,NW,319,10.0,20.0,44,0.00,,---,0.79,VWS V14.00,2013-01-31 18:57:00,
2013-01-31 14:02:00,43.4,22.4,29.45,NW,306,8.0,20.0,43,0.00,,---,0.79,VWS V14.00,2013-01-31 19:02:00,
2013-01-31 14:07:00,43.6,23.1,29.45,NNW,332,7.0,22.0,44,0.00,,---,0.79,VWS V14.00,2013-01-31 19:07:00,
2013-01-31 14:12:00,43.9,23.4,29.45,NW,320,9.0,22.0,44,0.00,,---,0.79,VWS V14.00,2013-01-31 19:12:00,
2013-01-31 14:17:00,44.1,22.5,29.46,WSW,239,10.0,22.0,42,0.00,,---,0.79,VWS V14.00,2013-01-31 19:17:00,
2013-01-31 14:22:00,43.9,21.7,29.46,West,269,4.0,25.0,41,0.00,,---,0.79,VWS V14.00,2013-01-31 19:22:00,
2013-01-31 14:27:00,43.3,21.2,29.47,NW,308,24.0,24.0,41,0.00,,---,0.79,VWS V14.00,2013-01-31 19:27:00,
2013-01-31 14:32:00,43.0,20.9,29.47,NW,325,8.0,24.0,41,0.00,,---,0.79,VWS V14.00,2013-01-31 19:32:00,
2013-01-31 14:37:00,42.9,20.3,29.47,NW,318,12.0,31.0,40,0.00,,---,0.79,VWS V14.00,2013-01-31 19:37:00,
2013-01-31 14:42:00,43.0,19.8,29.48,NW,314,9.0,31.0,39,0.00,,---,0.79,VWS V14.00,2013-01-31 19:42:00,
2013-01-31 14:47:00,43.0,20.9,29.48,NNW,331,16.0,31.0,41,0.00,,---,0.79,VWS V14.00,2013-01-31 19:47:00,
2013-01-31 14:52:00,42.9,17.8,29.48,NNW,331,13.0,31.0,36,0.00,,---,0.79,VWS V14.00,2013-01-31 19:52:00,
2013-01-31 14:57:00,42.7,18.9,29.48,NNW,329,19.0,35.0,38,0.00,,---,0.79,VWS V14.00,2013-01-31 19:57:00,
2013-01-31 15:02:00,42.7,18.9,29.49,NNW,334,9.0,35.0,38,0.00,,---,0.79,VWS V14.00,2013-01-31 20:02:00,
2013-01-31 15:07:00,42.7,18.3,29.49,NNW,331,11.0,35.0,37,0.00,,---,0.79,VWS V14.00,2013-01-31 20:07:00,
2013-01-31 15:12:00,42.6,19.4,29.49,NW,315,5.0,35.0,39,0.00,,---,0.79,VWS V14.00,2013-01-31 20:12:00,
2013-01-31 15:17:00,42.7,18.9,29.49,NW,325,11.0,35.0,38,0.00,,---,0.79,VWS V14.00,2013-01-31 20:17:00,
2013-01-31 15:22:00,42.4,18.6,29.50,NNW,331,15.0,35.0,38,0.00,,---,0.79,VWS V14.00,2013-01-31 20:22:00,
2013-01-31 15:28:00,42.1,19.0,29.50,NW,325,17.0,24.0,39,0.00,,---,0.79,VWS V14.00,2013-01-31 20:28:00,
2013-01-31 15:33:00,42.1,20.1,29.50,NW,325,9.0,24.0,41,0.00,,---,0.79,VWS V14.00,2013-01-31 20:33:00,
2013-01-31 15:38:00,42.1,20.1,29.51,NW,325,10.0,24.0,41,0.00,,---,0.79,VWS V14.00,2013-01-31 20:38:00,
2013-01-31 15:43:00,41.8,19.8,29.51,NW,324,17.0,24.0,41,0.00,,---,0.79,VWS V14.00,2013-01-31 20:43:00,
2013-01-31 15:48:00,41.7,20.3,29.52,NW,321,13.0,24.0,42,0.00,,---,0.79,VWS V14.00,2013-01-31 20:48:00,
2013-01-31 15:53:00,41.6,19.7,29.51,NNW,331,1.0,24.0,41,0.00,,---,0.79,VWS V14.00,2013-01-31 20:53:00,
2013-01-31 15:58:00,41.5,19.6,29.52,NNW,331,14.0,19.0,41,0.00,,---,0.79,VWS V14.00,2013-01-31 20:58:00,
2013-01-31 16:03:00,41.2,18.7,29.53,NNW,336,18.0,28.0,40,0.00,,---,0.79,VWS V14.00,2013-01-31 21:03:00,
2013-01-31 16:08:00,40.8,17.2,29.53,NNW,330,21.0,29.0,38,0.00,,---,0.79,VWS V14.00,2013-01-31 21:08:00,
2013-01-31 16:13:00,40.4,17.4,29.54,NW,314,17.0,29.0,39,0.00,,---,0.79,VWS V14.00,2013-01-31 21:13:00,
2013-01-31 16:18:00,40.2,17.2,29.55,NW,320,17.0,29.0,39,0.00,,---,0.79,VWS V14.00,2013-01-31 21:18:00,
2013-01-31 16:23:00,39.9,16.4,29.55,NNW,328,11.0,29.0,38,0.00,,---,0.79,VWS V14.00,2013-01-31 21:23:00,
2013-01-31 16:28:00,39.6,16.1,29.55,NNW,327,13.0,17.0,38,0.00,,---,0.79,VWS V14.00,2013-01-31 21:28:00,
2013-01-31 16:33:00,39.3,15.8,29.55,NNW,332,12.0,21.0,38,0.00,,---,0.79,VWS V14.00,2013-01-31 21:33:00,
2013-01-31 16:38:00,39.2,16.9,29.56,NW,311,1.0,21.0,40,0.00,,---,0.79,VWS V14.00,2013-01-31 21:38:00,
2013-01-31 16:43:00,39.0,16.7,29.56,NW,325,9.0,21.0,40,0.00,,---,0.79,VWS V14.00,2013-01-31 21:43:00,
2013-01-31 16:48:00,38.7,15.9,29.57,NNW,333,12.0,31.0,39,0.00,,---,0.79,VWS V14.00,2013-01-31 21:48:00,
2013-01-31 16:53:00,38.5,15.1,29.57,NNW,346,18.0,31.0,38,0.00,,---,0.79,VWS V14.00,2013-01-31 21:53:00,
2013-01-31 16:58:00,38.1,15.9,29.58,NW,323,11.0,26.0,40,0.00,,---,0.79,VWS V14.00,2013-01-31 21:58:00,
2013-01-31 17:03:00,37.9,15.2,29.58,WNW,296,0.0,26.0,39,0.00,,---,0.79,VWS V14.00,2013-01-31 22:03:00,
2013-01-31 17:08:00,37.8,15.1,29.58,NW,320,12.0,26.0,39,0.00,,---,0.79,VWS V14.00,2013-01-31 22:08:00,
2013-01-31 17:13:00,37.6,16.0,29.58,NNW,329,7.0,26.0,41,0.00,,---,0.79,VWS V14.00,2013-01-31 22:13:00,
2013-01-31 17:18:00,37.4,15.9,29.59,NW,311,13.0,26.0,41,0.00,,---,0.79,VWS V14.00,2013-01-31 22:18:00,
2013-01-31 17:23:00,37.4,15.9,29.59,NW,313,2.0,26.0,41,0.00,,---,0.79,VWS V14.00,2013-01-31 22:23:00,
2013-01-31 17:28:00,37.3,16.9,29.60,NW,320,5.0,15.0,43,0.00,,---,0.79,VWS V14.00,2013-01-31 22:28:00,
2013-01-31 17:33:00,37.1,18.2,29.61,West,277,5.0,15.0,46,0.00,,---,0.79,VWS V14.00,2013-01-31 22:33:00,
2013-01-31 17:38:00,36.8,19.5,29.61,NW,325,1.0,15.0,49,0.00,,---,0.79,VWS V14.00,2013-01-31 22:38:00,
2013-01-31 17:43:00,36.5,20.1,29.62,NW,309,4.0,15.0,51,0.00,,---,0.79,VWS V14.00,2013-01-31 22:43:00,
2013-01-31 17:48:00,36.2,19.8,29.62,NNW,330,8.0,16.0,51,0.00,,---,0.79,VWS V14.00,2013-01-31 22:48:00,
2013-01-31 17:53:00,36.1,19.3,29.63,NW,326,0.0,18.0,50,0.00,,---,0.79,VWS V14.00,2013-01-31 22:53:00,
2013-01-31 17:58:00,35.8,19.9,29.64,West,260,2.0,9.0,52,0.00,,---,0.79,VWS V14.00,2013-01-31 22:58:00,
2013-01-31 18:03:00,35.5,19.6,29.65,NNW,331,16.0,16.0,52,0.00,,---,0.79,VWS V14.00,2013-01-31 23:03:00,
2013-01-31 18:08:00,35.2,17.5,29.65,NW,323,17.0,29.0,48,0.00,,---,0.79,VWS V14.00,2013-01-31 23:08:00,
2013-01-31 18:13:00,35.1,17.9,29.66,NW,315,6.0,29.0,49,0.00,,---,0.79,VWS V14.00,2013-01-31 23:13:00,
2013-01-31 18:18:00,35.0,17.3,29.66,WNW,300,2.0,29.0,48,0.00,,---,0.79,VWS V14.00,2013-01-31 23:18:00,
2013-01-31 18:23:00,34.8,16.6,29.66,NW,309,18.0,29.0,47,0.00,,---,0.79,VWS V14.00,2013-01-31 23:23:00,
2013-01-31 18:28:00,34.8,16.1,29.66,NW,312,9.0,17.0,46,0.00,,---,0.79,VWS V14.00,2013-01-31 23:28:00,
2013-01-31 18:33:00,34.7,15.6,29.67,NW,309,7.0,20.0,45,0.00,,---,0.79,VWS V14.00,2013-01-31 23:33:00,
2013-01-31 18:38:00,34.6,14.4,29.67,NW,305,8.0,20.0,43,0.00,,---,0.79,VWS V14.00,2013-01-31 23:38:00,
2013-01-31 18:43:00,34.6,13.9,29.67,NNW,329,6.0,21.0,42,0.00,,---,0.79,VWS V14.00,2013-01-31 23:43:00,
2013-01-31 18:49:00,34.6,13.9,29.68,NW,326,24.0,24.0,42,0.00,,---,0.79,VWS V14.00,2013-01-31 23:49:00,
2013-01-31 18:54:00,34.5,14.3,29.68,NW,315,14.0,24.0,43,0.00,,---,0.79,VWS V14.00,2013-01-31 23:54:00,
2013-01-31 18:59:00,34.4,14.2,29.68,NW,321,23.0,23.0,43,0.00,,---,0.79,VWS V14.00,2013-01-31 23:59:00,
2013-01-31 19:04:00,34.3,14.7,29.69,NNW,338,6.0,24.0,44,0.00,,---,0.79,VWS V14.00,2013-02-01 00:04:00,
2013-01-31 19:09:00,34.2,15.1,29.69,NNW,342,6.0,24.0,45,0.00,,---,0.79,VWS V14.00,2013-02-01 00:09:00,
2013-01-31 19:14:00,34.1,14.0,29.69,NW,313,2.0,24.0,43,0.00,,---,0.79,VWS V14.00,2013-02-01 00:14:00,
2013-01-31 19:19:00,33.9,14.8,29.69,WNW,290,6.0,24.0,45,0.00,,---,0.79,VWS V14.00,2013-02-01 00:19:00,
2013-01-31 19:24:00,33.8,15.2,29.69,NW,316,5.0,24.0,46,0.00,,---,0.79,VWS V14.00,2013-02-01 00:24:00,
2013-01-31 19:29:00,33.8,14.7,29.70,NNW,328,7.0,7.0,45,0.00,,---,0.79,VWS V14.00,2013-02-01 00:29:00,
2013-01-31 19:34:00,33.6,15.5,29.71,NW,322,6.0,7.0,47,0.00,,---,0.79,VWS V14.00,2013-02-01 00:34:00,
2013-01-31 19:39:00,33.5,15.4,29.71,WNW,283,7.0,12.0,47,0.00,,---,0.79,VWS V14.00,2013-02-01 00:39:00,
2013-01-31 19:44:00,33.6,15.5,29.70,West,272,7.0,17.0,47,0.00,,---,0.79,VWS V14.00,2013-02-01 00:44:00,
2013-01-31 19:49:00,33.6,15.0,29.70,NNW,328,8.0,18.0,46,0.00,,---,0.79,VWS V14.00,2013-02-01 00:49:00,
2013-01-31 19:54:00,33.5,14.9,29.70,NW,324,9.0,18.0,46,0.00,,---,0.79,VWS V14.00,2013-02-01 00:54:00,
2013-01-31 19:59:00,33.4,15.4,29.70,NW,325,9.0,10.0,47,0.00,,---,0.79,VWS V14.00,2013-02-01 00:59:00,
2013-01-31 20:04:00,33.3,15.7,29.70,NW,318,11.0,11.0,48,0.00,,---,0.79,VWS V14.00,2013-02-01 01:04:00,
2013-01-31 20:09:00,33.2,16.1,29.70,NW,321,12.0,14.0,49,0.00,,---,0.79,VWS V14.00,2013-02-01 01:09:00,
2013-01-31 20:14:00,33.1,16.5,29.70,NW,325,17.0,20.0,50,0.00,,---,0.79,VWS V14.00,2013-02-01 01:14:00,
2013-01-31 20:19:00,33.0,16.9,29.71,WNW,296,9.0,20.0,51,0.00,,---,0.79,VWS V14.00,2013-02-01 01:19:00,
2013-01-31 20:24:00,32.9,16.8,29.71,NW,316,0.0,20.0,51,0.00,,---,0.79,VWS V14.00,2013-02-01 01:24:00,
2013-01-31 20:29:00,32.8,17.1,29.71,NW,315,4.0,7.0,52,0.00,,---,0.79,VWS V14.00,2013-02-01 01:29:00,
2013-01-31 20:34:00,32.6,17.4,29.71,NNW,329,1.0,7.0,53,0.00,,---,0.79,VWS V14.00,2013-02-01 01:34:00,
2013-01-31 20:39:00,32.5,17.7,29.71,NNW,332,4.0,13.0,54,0.00,,---,0.79,VWS V14.00,2013-02-01 01:39:00,
2013-01-31 20:44:00,32.5,17.3,29.72,NW,320,17.0,20.0,53,0.00,,---,0.79,VWS V14.00,2013-02-01 01:44:00,
2013-01-31 20:49:00,32.3,16.7,29.72,NW,324,8.0,20.0,52,0.00,,---,0.79,VWS V14.00,2013-02-01 01:49:00,
2013-01-31 20:54:00,32.1,16.5,29.72,NNW,329,10.0,20.0,52,0.00,,---,0.79,VWS V14.00,2013-02-01 01:54:00,
2013-01-31 20:59:00,31.9,16.7,29.73,NNW,330,8.0,14.0,53,0.00,,---,0.79,VWS V14.00,2013-02-01 01:59:00,
2013-01-31 21:04:00,31.8,16.2,29.73,NW,318,8.0,14.0,52,0.00,,---,0.79,VWS V14.00,2013-02-01 02:04:00,
2013-01-31 21:09:00,31.7,16.1,29.73,NW,319,12.0,20.0,52,0.00,,---,0.79,VWS V14.00,2013-02-01 02:09:00,
2013-01-31 21:14:00,31.6,16.0,29.73,NW,321,18.0,20.0,52,0.00,,---,0.79,VWS V14.00,2013-02-01 02:14:00,
2013-01-31 21:19:00,31.5,15.5,29.73,NW,320,7.0,20.0,51,0.00,,---,0.79,VWS V14.00,2013-02-01 02:19:00,
2013-01-31 21:24:00,31.4,15.4,29.73,NW,309,4.0,20.0,51,0.00,,---,0.79,VWS V14.00,2013-02-01 02:24:00,
2013-01-31 21:29:00,31.4,14.9,29.74,NNW,329,12.0,13.0,50,0.00,,---,0.79,VWS V14.00,2013-02-01 02:29:00,
2013-01-31 21:34:00,31.4,14.9,29.73,NNW,333,11.0,19.0,50,0.00,,---,0.79,VWS V14.00,2013-02-01 02:34:00,
2013-01-31 21:39:00,31.4,14.0,29.74,NW,325,7.0,19.0,48,0.00,,---,0.79,VWS V14.00,2013-02-01 02:39:00,
2013-01-31 21:44:00,31.4,13.5,29.74,NW,316,11.0,20.0,47,0.00,,---,0.79,VWS V14.00,2013-02-01 02:44:00,
2013-01-31 21:49:00,31.3,13.9,29.74,NW,312,1.0,20.0,48,0.00,,---,0.79,VWS V14.00,2013-02-01 02:49:00,
2013-01-31 21:54:00,31.2,13.8,29.74,NW,322,0.0,20.0,48,0.00,,---,0.79,VWS V14.00,2013-02-01 02:54:00,
2013-01-31 21:59:00,31.1,14.6,29.75,NNW,327,0.0,9.0,50,0.00,,---,0.79,VWS V14.00,2013-02-01 02:59:00,
2013-01-31 22:04:00,31.0,13.6,29.75,NW,311,14.0,18.0,48,0.00,,---,0.79,VWS V14.00,2013-02-01 03:04:00,
2013-01-31 22:09:00,31.1,13.7,29.75,NW,323,13.0,18.0,48,0.00,,---,0.79,VWS V14.00,2013-02-01 03:09:00,
2013-01-31 22:14:00,31.0,13.6,29.74,NW,304,5.0,18.0,48,0.00,,---,0.79,VWS V14.00,2013-02-01 03:14:00,
2013-01-31 22:19:00,30.9,13.1,29.75,NNW,327,15.0,23.0,47,0.00,,---,0.79,VWS V14.00,2013-02-01 03:19:00,
2013-01-31 22:24:00,30.9,13.5,29.74,WNW,292,0.0,23.0,48,0.00,,---,0.79,VWS V14.00,2013-02-01 03:24:00,
2013-01-31 22:29:00,30.7,12.9,29.74,NNW,327,8.0,13.0,47,0.00,,---,0.79,VWS V14.00,2013-02-01 03:29:00,
2013-01-31 22:34:00,30.6,13.3,29.75,NW,318,7.0,13.0,48,0.00,,---,0.79,VWS V14.00,2013-02-01 03:34:00,
2013-01-31 22:39:00,30.6,12.8,29.75,NW,311,8.0,13.0,47,0.00,,---,0.79,VWS V14.00,2013-02-01 03:39:00,
2013-01-31 22:44:00,30.5,12.2,29.75,NW,314,13.0,15.0,46,0.00,,---,0.79,VWS V14.00,2013-02-01 03:44:00,
2013-01-31 22:49:00,30.6,12.3,29.75,NNW,345,10.0,17.0,46,0.00,,---,0.79,VWS V14.00,2013-02-01 03:49:00,
2013-01-31 22:54:00,30.5,12.7,29.76,NW,315,5.0,17.0,47,0.00,,---,0.79,VWS V14.00,2013-02-01 03:54:00,
2013-01-31 22:59:00,30.3,12.5,29.76,NW,317,12.0,15.0,47,0.00,,---,0.79,VWS V14.00,2013-02-01 03:59:00,
2013-01-31 23:04:00,30.2,11.9,29.76,NNW,337,9.0,16.0,46,0.00,,---,0.79,VWS V14.00,2013-02-01 04:04:00,
2013-01-31 23:09:00,30.2,11.4,29.76,NNW,329,11.0,16.0,45,0.00,,---,0.79,VWS V14.00,2013-02-01 04:09:00,
2013-01-31 23:14:00,30.2,11.9,29.76,NNW,328,7.0,20.0,46,0.00,,---,0.79,VWS V14.00,2013-02-01 04:14:00,
2013-01-31 23:20:00,30.2,11.4,29.77,NW,326,0.0,20.0,45,0.00,,---,0.79,VWS V14.00,2013-02-01 04:20:00,
2013-01-31 23:25:00,30.1,10.8,29.77,NW,319,10.0,20.0,44,0.00,,---,0.79,VWS V14.00,2013-02-01 04:25:00,
2013-01-31 23:30:00,30.1,10.8,29.77,NW,318,4.0,13.0,44,0.00,,---,0.79,VWS V14.00,2013-02-01 04:30:00,
2013-01-31 23:35:00,30.1,10.8,29.77,NW,309,5.0,14.0,44,0.00,,---,0.79,VWS V14.00,2013-02-01 04:35:00,
2013-01-31 23:40:00,30.0,10.7,29.77,NW,311,2.0,14.0,44,0.00,,---,0.79,VWS V14.00,2013-02-01 04:40:00,
2013-01-31 23:45:00,29.9,11.2,29.77,NW,322,7.0,15.0,45,0.00,,---,0.79,VWS V14.00,2013-02-01 04:45:00,
2013-01-31 23:50:00,29.9,10.6,29.78,NNW,329,0.0,15.0,44,0.00,,---,0.79,VWS V14.00,2013-02-01 04:50:00,
2013-01-31 23:55:00,29.9,11.2,29.77,NW,321,7.0,19.0,45,0.00,,---,0.79,VWS V14.00,2013-02-01 04:55:00,